Antelope, OR

3:46 PM PST on November 22, 2014 (GMT -0800)
RAWS NORTH POLE RIDGE OR US | Change Station
CLOSE
Current Station
Personal Weather Station
Location: Kent, OR
Elevation: 3479 ft
Nearby Weather Stations

Elev 3479 ft 45.03 °N, 120.54 °W | Updated 58 minutes ago

Mostly Cloudy
Mostly Cloudy
36 °F
Feels Like 21 °F
N
45
Wind Variable Wind from West
Gusts 58.0 mph

Today
High -- | Low -- °F
--% Chance of Precip.
Yesterday
High -- | Low -- °F
Precip. -- in
7:09 AM 4:28 PM
New Moon, 0% visible
Pressure 29.98 in
Visibility 10.0 miles
Clouds Scattered Clouds 2500 ft
Windchill 21 °F
Dew Point 31 °F
Humidity 83%
Rainfall 0.33 in
Snow Depth Not available.
UV 1 out of 12
Pollen .10 out of 12
Air Quality Not available.
Flu Activity Not available.
METAR KRDM 222256Z 29009KT 10SM SCT025 06/01 A2995 RMK AO2 SLP150 T00560006

More Conditions Fewer Conditions

Pressure 29.98 in
Visibility 10.0 miles
Clouds Scattered Clouds 2500 ft
Windchill 21 °F
Dew Point 31 °F
Humidity 83%
Rainfall 0.33 in
Snow Depth Not available.
UV 1 out of 12
Pollen .10 out of 12
Air Quality Not available.
Flu Activity Not available.
METAR KRDM 222256Z 29009KT 10SM SCT025 06/01 A2995 RMK AO2 SLP150 T00560006

More Conditions Fewer Conditions

10-Day Weather Forecast

Almanac

Astronomy

Nov. 22, 2014 Rise Set
Actual Time
Civil Twilight
Nautical Twilight
Astronomical Twilight
Moon
Length of Visible Light
Length of Day
Tomorrow will be .
, % of the Moon is Illuminated

Today's Extremes

State Highs State Lows

Community

WunderPhotos

Upload Photos

1,772,928 photos uploaded!

WunderBlogs® & News

Nearby

Air Quality

  Air Quality AQ Index Pollutant
Not available.

Snow Depth

Station Depth Elevation

Earthquake Activity

City Distance Mag. Time & Date
Minimum magnitude displayed is 2.5.

Coastal Water Temperatures

Place Temperature

Nearby Weather Stations